Argora, Idaho
Current Conditions -  °F | °C
As of 11:53 AM on Thursday 30 Oct 2014 (Local Time) from KRXE Reporting Station
Overcast Overcast  
Wind Chill: 53°   Ceiling: 9000
Heat Index: 53°   Visibility: 10mi
Dew Point: 34°   Wind: 5mph
Humidity: 48%   Direction: 30°NNE
Pressure: 30.31"   Gusts: NA
Location:  44.2396°N, 112.579°W
Report Text: KRXE 301753Z AUTO 03004KT 10SM OVC090 12/01 A3031 RMK AO2 SLP264 T01170011 10117 20017 58001
Loading
Personal Weather Stations






























Interactive Weather Map New forecast layout! Learn more

10-Day Weather Forecast

Advertisements
Track Severe Weather on mobile